sensor_id;sensor_type;location;lat;lon;timestamp;temperature;humidity
68746;SHT31;73143;45.456;11.064;2023-11-19T19:51:29;9.35;67.93
68746;SHT31;73143;45.456;11.064;2023-11-19T19:54:07;9.36;67.51
68746;SHT31;73143;45.456;11.064;2023-11-19T19:56:45;9.38;67.45
68746;SHT31;73143;45.456;11.064;2023-11-19T19:59:21;9.36;67.48
68746;SHT31;73143;45.456;11.064;2023-11-19T20:01:58;9.37;67.50
68746;SHT31;73143;45.456;11.064;2023-11-19T20:04:36;9.33;67.47
68746;SHT31;73143;45.456;11.064;2023-11-19T20:07:18;9.31;67.43
68746;SHT31;73143;45.456;11.064;2023-11-19T20:09:56;9.29;67.48
68746;SHT31;73143;45.456;11.064;2023-11-19T20:12:33;9.27;67.48
68746;SHT31;73143;45.456;11.064;2023-11-19T20:15:09;9.26;67.49
68746;SHT31;73143;45.456;11.064;2023-11-19T20:17:49;9.25;67.50
68746;SHT31;73143;45.456;11.064;2023-11-19T20:20:27;9.23;67.50
68746;SHT31;73143;45.456;11.064;2023-11-19T20:23:06;9.23;67.48
68746;SHT31;73143;45.456;11.064;2023-11-19T20:25:43;9.22;67.51
68746;SHT31;73143;45.456;11.064;2023-11-19T20:28:19;9.22;67.51
68746;SHT31;73143;45.456;11.064;2023-11-19T20:30:56;9.21;67.54
68746;SHT31;73143;45.456;11.064;2023-11-19T20:33:34;9.21;67.56
68746;SHT31;73143;45.456;11.064;2023-11-19T20:36:11;9.19;67.60
68746;SHT31;73143;45.456;11.064;2023-11-19T20:38:49;9.19;67.60
68746;SHT31;73143;45.456;11.064;2023-11-19T20:41:25;9.18;67.60
68746;SHT31;73143;45.456;11.064;2023-11-19T20:44:02;9.14;67.63
68746;SHT31;73143;45.456;11.064;2023-11-19T20:46:40;9.12;67.68
68746;SHT31;73143;45.456;11.064;2023-11-19T20:49:19;9.10;67.66
68746;SHT31;73143;45.456;11.064;2023-11-19T20:51:56;9.08;67.67
68746;SHT31;73143;45.456;11.064;2023-11-19T20:54:33;9.06;67.70
68746;SHT31;73143;45.456;11.064;2023-11-19T20:57:10;9.04;67.76
68746;SHT31;73143;45.456;11.064;2023-11-19T20:59:47;9.02;67.86
68746;SHT31;73143;45.456;11.064;2023-11-19T21:02:24;9.01;67.99
68746;SHT31;73143;45.456;11.064;2023-11-19T21:05:02;9.00;68.00
68746;SHT31;73143;45.456;11.064;2023-11-19T21:07:45;9.01;67.98
68746;SHT31;73143;45.456;11.064;2023-11-19T21:10:24;9.00;67.99
68746;SHT31;73143;45.456;11.064;2023-11-19T21:13:01;8.98;68.02
68746;SHT31;73143;45.456;11.064;2023-11-19T21:15:37;8.97;68.13
68746;SHT31;73143;45.456;11.064;2023-11-19T21:18:26;8.94;68.24
68746;SHT31;73143;45.456;11.064;2023-11-19T21:21:04;8.92;68.34
68746;SHT31;73143;45.456;11.064;2023-11-19T21:23:41;8.88;68.50
68746;SHT31;73143;45.456;11.064;2023-11-19T21:26:18;8.85;68.63
68746;SHT31;73143;45.456;11.064;2023-11-19T21:28:57;8.80;68.76
68746;SHT31;73143;45.456;11.064;2023-11-19T21:31:35;8.77;68.81
68746;SHT31;73143;45.456;11.064;2023-11-19T21:34:14;8.75;68.81
68746;SHT31;73143;45.456;11.064;2023-11-19T21:36:51;8.73;68.88
68746;SHT31;73143;45.456;11.064;2023-11-19T21:39:29;8.71;68.99
68746;SHT31;73143;45.456;11.064;2023-11-19T21:42:07;8.71;68.99
68746;SHT31;73143;45.456;11.064;2023-11-19T21:44:44;8.69;69.08
68746;SHT31;73143;45.456;11.064;2023-11-19T21:47:22;8.67;69.08
68746;SHT31;73143;45.456;11.064;2023-11-19T21:49:58;8.66;69.09
68746;SHT31;73143;45.456;11.064;2023-11-19T21:52:36;8.66;69.09
68746;SHT31;73143;45.456;11.064;2023-11-19T21:55:14;8.65;69.19
68746;SHT31;73143;45.456;11.064;2023-11-19T21:57:53;8.66;69.12
68746;SHT31;73143;45.456;11.064;2023-11-19T22:00:30;8.67;69.10
68746;SHT31;73143;45.456;11.064;2023-11-19T22:03:08;8.68;69.12
68746;SHT31;73143;45.456;11.064;2023-11-19T22:05:45;8.70;69.17
68746;SHT31;73143;45.456;11.064;2023-11-19T22:08:23;8.72;69.20
68746;SHT31;73143;45.456;11.064;2023-11-19T22:11:00;8.71;69.14
68746;SHT31;73143;45.456;11.064;2023-11-19T22:13:40;8.71;69.05
68746;SHT31;73143;45.456;11.064;2023-11-19T22:16:17;8.71;69.09
68746;SHT31;73143;45.456;11.064;2023-11-19T22:18:55;8.71;69.09
68746;SHT31;73143;45.456;11.064;2023-11-19T22:21:32;8.72;69.02
68746;SHT31;73143;45.456;11.064;2023-11-19T22:24:09;8.72;69.14
68746;SHT31;73143;45.456;11.064;2023-11-19T22:26:47;8.70;69.23
68746;SHT31;73143;45.456;11.064;2023-11-19T22:29:25;8.70;69.34
68746;SHT31;73143;45.456;11.064;2023-11-19T22:32:02;8.71;69.37
68746;SHT31;73143;45.456;11.064;2023-11-19T22:35:00;8.72;69.40
68746;SHT31;73143;45.456;11.064;2023-11-19T22:37:38;8.72;69.44
68746;SHT31;73143;45.456;11.064;2023-11-19T22:40:15;8.72;69.41
68746;SHT31;73143;45.456;11.064;2023-11-19T22:42:52;8.71;69.42
68746;SHT31;73143;45.456;11.064;2023-11-19T22:45:30;8.72;69.38
68746;SHT31;73143;45.456;11.064;2023-11-19T22:48:07;8.71;69.34
68746;SHT31;73143;45.456;11.064;2023-11-19T22:50:44;8.71;69.37
68746;SHT31;73143;45.456;11.064;2023-11-19T22:53:23;8.72;69.40
68746;SHT31;73143;45.456;11.064;2023-11-19T22:55:59;8.71;69.46
68746;SHT31;73143;45.456;11.064;2023-11-19T22:58:45;8.70;69.55
68746;SHT31;73143;45.456;11.064;2023-11-19T23:01:23;8.69;69.60
68746;SHT31;73143;45.456;11.064;2023-11-19T23:04:02;8.69;69.66
68746;SHT31;73143;45.456;11.064;2023-11-19T23:06:40;8.68;69.73
68746;SHT31;73143;45.456;11.064;2023-11-19T23:09:18;8.66;69.88
68746;SHT31;73143;45.456;11.064;2023-11-19T23:11:56;8.66;69.87
68746;SHT31;73143;45.456;11.064;2023-11-19T23:14:34;8.65;70.16
68746;SHT31;73143;45.456;11.064;2023-11-19T23:17:12;8.64;70.28
68746;SHT31;73143;45.456;11.064;2023-11-19T23:19:49;8.63;70.32
68746;SHT31;73143;45.456;11.064;2023-11-19T23:22:37;8.65;70.49
68746;SHT31;73143;45.456;11.064;2023-11-19T23:25:17;8.61;70.62
68746;SHT31;73143;45.456;11.064;2023-11-19T23:27:56;8.59;70.95
68746;SHT31;73143;45.456;11.064;2023-11-19T23:30:34;8.56;71.04
68746;SHT31;73143;45.456;11.064;2023-11-19T23:33:12;8.56;71.09
68746;SHT31;73143;45.456;11.064;2023-11-19T23:35:49;8.56;71.09
68746;SHT31;73143;45.456;11.064;2023-11-19T23:38:26;8.55;71.22
68746;SHT31;73143;45.456;11.064;2023-11-19T23:41:04;8.49;71.63
68746;SHT31;73143;45.456;11.064;2023-11-19T23:43:43;8.47;71.87
68746;SHT31;73143;45.456;11.064;2023-11-19T23:46:21;8.46;71.91
68746;SHT31;73143;45.456;11.064;2023-11-19T23:48:57;8.38;72.37
68746;SHT31;73143;45.456;11.064;2023-11-19T23:51:38;8.30;72.84
68746;SHT31;73143;45.456;11.064;2023-11-19T23:54:15;8.26;73.02
68746;SHT31;73143;45.456;11.064;2023-11-19T23:56:52;8.23;72.95
68746;SHT31;73143;45.456;11.064;2023-11-19T23:59:29;8.23;72.87
